createdAt,value
2022-12-20T00:01:00.293Z,12.60
2022-12-20T00:03:28.198Z,12.56
2022-12-20T00:05:57.466Z,11.68
2022-12-20T00:08:25.323Z,11.04
2022-12-20T00:10:53.131Z,11.82
2022-12-20T00:13:21.071Z,12.80
2022-12-20T00:15:49.078Z,11.80
2022-12-20T00:18:16.889Z,11.94
2022-12-20T00:20:44.794Z,11.64
2022-12-20T00:23:14.282Z,12.70
2022-12-20T00:25:42.187Z,10.94
2022-12-20T00:28:10.019Z,10.98
2022-12-20T00:30:37.912Z,11.41
2022-12-20T00:33:05.913Z,12.43
2022-12-20T00:35:34.836Z,12.18
2022-12-20T00:38:02.745Z,12.58
2022-12-20T00:40:31.979Z,12.60
2022-12-20T00:42:59.829Z,12.19
2022-12-20T00:45:27.738Z,12.69
2022-12-20T00:47:55.578Z,12.42
2022-12-20T00:50:23.428Z,12.51
2022-12-20T00:52:51.191Z,12.82
2022-12-20T00:55:19.081Z,11.67
2022-12-20T00:57:48.407Z,12.67
2022-12-20T01:00:17.430Z,13.20
2022-12-20T01:02:45.346Z,12.17
2022-12-20T01:05:13.212Z,12.60
2022-12-20T01:07:41.191Z,12.84
2022-12-20T01:10:10.195Z,13.14
2022-12-20T01:12:38.011Z,12.73
2022-12-20T01:15:08.936Z,12.97
2022-12-20T01:17:37.766Z,13.21
2022-12-20T01:20:07.551Z,12.33
2022-12-20T01:22:35.457Z,12.90
2022-12-20T01:25:03.312Z,12.37
2022-12-20T01:27:31.234Z,12.95
2022-12-20T01:29:59.058Z,12.17
2022-12-20T01:32:28.295Z,13.14
2022-12-20T01:34:56.217Z,13.13
2022-12-20T01:37:23.976Z,12.40
2022-12-20T01:39:52.055Z,12.96
2022-12-20T01:42:19.897Z,12.13
2022-12-20T01:44:59.871Z,12.44
2022-12-20T01:47:32.184Z,12.82
2022-12-20T01:50:01.612Z,13.13
2022-12-20T01:52:34.314Z,13.10
2022-12-20T01:55:07.072Z,12.29
2022-12-20T01:57:39.497Z,12.01
2022-12-20T02:00:09.677Z,11.57
2022-12-20T02:02:49.507Z,12.06
2022-12-20T02:05:19.394Z,11.57
2022-12-20T02:07:50.541Z,12.43
2022-12-20T02:10:19.156Z,11.97
2022-12-20T02:12:48.058Z,11.64
2022-12-20T02:15:30.004Z,12.37
2022-12-20T02:18:09.351Z,11.85
2022-12-20T02:20:59.520Z,12.00
2022-12-20T02:23:46.636Z,11.63
2022-12-20T02:26:25.299Z,12.92
2022-12-20T02:29:10.857Z,11.26
2022-12-20T02:31:42.957Z,12.12
2022-12-20T02:34:12.212Z,12.58
2022-12-20T02:36:40.645Z,12.88
2022-12-20T02:39:16.299Z,12.20
2022-12-20T02:41:46.335Z,12.71
2022-12-20T02:44:34.464Z,12.84
2022-12-20T02:47:06.323Z,13.39
2022-12-20T02:49:38.480Z,12.44
2022-12-20T02:52:06.980Z,12.75
2022-12-20T02:54:35.015Z,12.06
2022-12-20T02:57:07.729Z,12.58
2022-12-20T02:59:38.867Z,11.49
2022-12-20T03:02:09.136Z,13.71
2022-12-20T03:04:39.544Z,12.55
2022-12-20T03:07:09.139Z,12.15
2022-12-20T03:09:39.450Z,12.67
2022-12-20T03:12:07.925Z,12.73
2022-12-20T03:14:37.942Z,11.87
2022-12-20T03:17:10.246Z,13.28
2022-12-20T03:19:39.503Z,13.30
2022-12-20T03:22:07.504Z,12.98
2022-12-20T03:24:35.439Z,11.70
2022-12-20T03:27:09.172Z,12.44
2022-12-20T03:29:37.075Z,13.00
2022-12-20T03:32:05.304Z,12.15
2022-12-20T03:34:34.711Z,12.36
2022-12-20T03:37:03.373Z,12.91
2022-12-20T03:39:31.457Z,13.11
2022-12-20T03:42:00.670Z,12.35
2022-12-20T03:44:28.945Z,13.55
2022-12-20T03:46:56.864Z,13.85
2022-12-20T03:49:25.477Z,13.80
2022-12-20T03:51:54.724Z,12.14
2022-12-20T03:54:23.699Z,13.14
2022-12-20T03:57:07.728Z,14.45
2022-12-20T03:59:36.155Z,13.19
2022-12-20T04:02:07.665Z,12.93
2022-12-20T04:04:35.620Z,13.92
2022-12-20T04:07:04.758Z,13.21
2022-12-20T04:09:34.377Z,12.95
2022-12-20T04:12:08.545Z,13.54
2022-12-20T04:14:38.957Z,14.03
2022-12-20T04:17:07.881Z,13.43
2022-12-20T04:19:36.968Z,12.96
2022-12-20T04:22:07.631Z,13.03
2022-12-20T04:24:47.886Z,13.00
2022-12-20T04:27:27.066Z,12.60
2022-12-20T04:29:56.884Z,12.74
2022-12-20T04:32:24.681Z,13.20
2022-12-20T04:34:52.601Z,12.79
2022-12-20T04:37:22.757Z,14.10
2022-12-20T04:39:55.504Z,11.65
2022-12-20T04:42:43.610Z,12.06
2022-12-20T04:45:13.781Z,11.97
2022-12-20T04:47:41.829Z,13.25
2022-12-20T04:50:11.742Z,12.70
2022-12-20T04:53:01.317Z,12.91
2022-12-20T04:55:29.765Z,12.75
2022-12-20T04:58:05.292Z,12.22
2022-12-20T05:00:36.312Z,12.69
2022-12-20T05:03:12.525Z,12.29
2022-12-20T05:05:41.274Z,12.84
2022-12-20T05:08:11.309Z,13.27
2022-12-20T05:10:39.440Z,12.47
2022-12-20T05:13:09.550Z,13.13
2022-12-20T05:15:43.300Z,13.19
2022-12-20T05:18:12.242Z,12.10
2022-12-20T05:21:11.131Z,11.81
2022-12-20T05:23:58.596Z,12.98
2022-12-20T05:26:30.961Z,12.20
2022-12-20T05:28:58.894Z,12.97
2022-12-20T05:31:28.138Z,12.07
2022-12-20T05:33:57.800Z,12.10
2022-12-20T05:36:30.239Z,12.79
2022-12-20T05:39:04.636Z,12.49
2022-12-20T05:41:35.259Z,12.66
2022-12-20T05:44:04.094Z,12.66
2022-12-20T05:46:35.304Z,12.33
2022-12-20T05:49:07.403Z,13.35
2022-12-20T05:51:35.396Z,13.00
2022-12-20T05:54:12.546Z,14.06
2022-12-20T05:56:49.309Z,14.08
2022-12-20T05:59:21.767Z,13.76
2022-12-20T06:01:49.676Z,12.99
2022-12-20T06:04:17.672Z,12.64
2022-12-20T06:06:47.514Z,13.58
2022-12-20T06:09:20.814Z,14.21
2022-12-20T06:12:01.510Z,14.62
2022-12-20T06:14:30.791Z,13.46
2022-12-20T06:16:58.698Z,13.06
2022-12-20T06:19:26.811Z,13.44
2022-12-20T06:21:57.909Z,12.91
2022-12-20T06:24:34.368Z,14.06
2022-12-20T06:27:06.932Z,14.24
2022-12-20T06:29:35.422Z,13.40
2022-12-20T06:32:08.530Z,14.21
2022-12-20T06:34:36.529Z,13.80
2022-12-20T06:37:04.380Z,13.74
2022-12-20T06:39:36.383Z,13.14
2022-12-20T06:42:06.936Z,13.87
2022-12-20T06:44:36.561Z,14.14
2022-12-20T06:47:05.037Z,13.23
2022-12-20T06:49:33.034Z,14.39
2022-12-20T06:52:01.897Z,13.69
2022-12-20T06:54:51.985Z,14.05
2022-12-20T06:57:21.754Z,13.69
2022-12-20T06:59:50.252Z,14.11
2022-12-20T07:02:18.270Z,13.80
2022-12-20T07:04:46.260Z,12.94
2022-12-20T07:07:14.268Z,13.89
2022-12-20T07:09:42.738Z,13.41
2022-12-20T07:12:12.215Z,14.59
2022-12-20T07:14:40.119Z,14.60
2022-12-20T07:17:08.459Z,14.88
2022-12-20T07:19:37.154Z,14.34
2022-12-20T07:22:05.460Z,14.57
2022-12-20T07:24:33.300Z,14.71
2022-12-20T07:27:01.253Z,13.40
2022-12-20T07:29:30.755Z,14.19
2022-12-20T07:31:58.597Z,14.71
2022-12-20T07:34:26.812Z,14.50
2022-12-20T07:36:54.648Z,14.65
2022-12-20T07:39:22.529Z,14.82
2022-12-20T07:41:50.455Z,14.90
2022-12-20T07:44:18.369Z,15.25
2022-12-20T07:46:48.085Z,14.54
2022-12-20T07:49:16.323Z,15.43
2022-12-20T07:51:45.871Z,14.04
2022-12-20T07:54:15.158Z,13.92
2022-12-20T07:56:47.020Z,14.91
2022-12-20T07:59:15.889Z,14.70
2022-12-20T08:01:44.592Z,13.63
2022-12-20T08:04:17.763Z,14.84
2022-12-20T08:06:46.418Z,14.81
2022-12-20T08:09:15.062Z,14.44
2022-12-20T08:11:44.085Z,13.93
2022-12-20T08:14:12.304Z,14.41
2022-12-20T08:16:40.241Z,14.91
2022-12-20T08:19:08.174Z,13.74
2022-12-20T08:21:37.481Z,14.06
2022-12-20T08:24:05.639Z,13.97
2022-12-20T08:26:38.681Z,14.13
2022-12-20T08:29:06.741Z,13.96
2022-12-20T08:31:34.630Z,15.16
2022-12-20T08:34:02.497Z,14.20
2022-12-20T08:36:30.265Z,15.28
2022-12-20T08:38:59.608Z,15.47
2022-12-20T08:41:27.426Z,15.22
2022-12-20T08:43:55.156Z,15.79
2022-12-20T08:46:23.230Z,15.24
2022-12-20T08:48:51.077Z,15.18
2022-12-20T08:51:19.203Z,14.90
2022-12-20T08:53:47.040Z,14.48
2022-12-20T08:56:18.275Z,14.40
2022-12-20T08:58:47.156Z,14.00
2022-12-20T09:01:17.647Z,15.53
2022-12-20T09:03:46.028Z,14.34
2022-12-20T09:06:15.597Z,14.41
2022-12-20T09:08:46.254Z,14.91
2022-12-20T09:11:17.162Z,14.84
2022-12-20T09:13:47.125Z,14.62
2022-12-20T09:16:17.574Z,14.28
2022-12-20T09:18:45.787Z,14.46
2022-12-20T09:21:13.878Z,14.84
2022-12-20T09:23:41.761Z,14.62
2022-12-20T09:26:12.963Z,15.45
2022-12-20T09:28:43.760Z,16.36
2022-12-20T09:31:14.671Z,16.76
2022-12-20T09:33:43.096Z,16.68
2022-12-20T09:36:13.366Z,16.38
2022-12-20T09:38:43.755Z,16.81
2022-12-20T09:41:27.043Z,17.16
2022-12-20T09:43:56.296Z,15.79
2022-12-20T09:46:24.591Z,16.59
2022-12-20T09:48:53.236Z,17.28
2022-12-20T09:51:32.698Z,16.88
2022-12-20T09:54:10.618Z,17.11
2022-12-20T09:56:40.784Z,16.46
2022-12-20T09:59:13.267Z,17.05
2022-12-20T10:01:44.934Z,16.23
2022-12-20T10:04:19.458Z,16.83
2022-12-20T10:06:57.679Z,16.00
2022-12-20T10:09:40.829Z,16.88
2022-12-20T10:12:18.573Z,16.67
2022-12-20T10:14:59.352Z,16.67
2022-12-20T10:17:39.228Z,16.45
2022-12-20T10:20:21.072Z,15.39
2022-12-20T10:22:53.134Z,16.24
2022-12-20T10:25:23.927Z,16.25
2022-12-20T10:27:53.918Z,14.95
2022-12-20T10:30:24.587Z,17.51
2022-12-20T10:32:55.852Z,16.73
2022-12-20T10:35:27.365Z,17.25
2022-12-20T10:38:08.859Z,16.30
2022-12-20T10:41:18.727Z,16.00
2022-12-20T10:43:28.489Z,16.92
2022-12-20T10:46:00.300Z,17.55
2022-12-20T10:48:31.917Z,18.38
2022-12-20T10:51:04.139Z,16.19
2022-12-20T10:53:33.147Z,17.30
2022-12-20T10:56:17.265Z,17.66
2022-12-20T10:58:54.063Z,16.27
2022-12-20T11:01:24.371Z,17.03
2022-12-20T11:03:55.679Z,17.26
2022-12-20T11:06:26.709Z,16.83
2022-12-20T11:09:00.535Z,17.93
2022-12-20T11:11:29.183Z,16.52
2022-12-20T11:14:15.163Z,15.94
2022-12-20T11:16:46.327Z,16.85
2022-12-20T11:19:45.166Z,17.62
2022-12-20T11:22:23.218Z,17.01
2022-12-20T11:24:58.806Z,17.35
2022-12-20T11:27:33.745Z,16.98
2022-12-20T11:30:09.699Z,15.85
2022-12-20T11:33:03.245Z,17.55
2022-12-20T11:35:41.826Z,16.92
2022-12-20T11:38:15.828Z,16.03
2022-12-20T11:40:46.449Z,17.41
2022-12-20T11:43:39.073Z,16.87
2022-12-20T11:46:28.118Z,16.97
2022-12-20T11:49:20.229Z,17.79
2022-12-20T11:51:49.680Z,16.53
2022-12-20T11:54:22.085Z,16.74
2022-12-20T11:56:52.287Z,17.10
2022-12-20T11:59:23.575Z,18.04
2022-12-20T12:01:55.479Z,18.63
2022-12-20T12:04:27.861Z,17.90
2022-12-20T12:06:59.355Z,18.92
2022-12-20T12:09:31.045Z,18.73
2022-12-20T12:12:07.960Z,17.83
2022-12-20T12:14:46.819Z,18.44
2022-12-20T12:17:19.806Z,18.85
2022-12-20T12:19:51.178Z,18.35
2022-12-20T12:22:23.911Z,19.03
2022-12-20T12:24:55.251Z,18.89
2022-12-20T12:27:25.186Z,18.35
2022-12-20T12:29:55.150Z,18.08
2022-12-20T12:32:30.539Z,18.22
2022-12-20T12:35:19.817Z,17.75
2022-12-20T12:38:06.260Z,17.55
2022-12-20T12:41:06.770Z,17.08
2022-12-20T12:43:48.849Z,16.52
2022-12-20T12:46:19.585Z,16.75
2022-12-20T12:48:52.189Z,17.75
2022-12-20T12:51:28.363Z,17.77
2022-12-20T12:54:04.773Z,17.27
2022-12-20T12:56:45.560Z,16.89
2022-12-20T12:59:24.196Z,16.83
2022-12-20T13:01:54.284Z,16.70
2022-12-20T13:04:29.136Z,16.69
2022-12-20T13:07:01.226Z,15.80
2022-12-20T13:09:41.291Z,16.38
2022-12-20T13:12:49.879Z,16.50
2022-12-20T13:15:51.802Z,15.97
2022-12-20T13:18:27.186Z,15.25
2022-12-20T13:21:28.734Z,15.72
2022-12-20T13:24:40.798Z,16.51
2022-12-20T13:27:28.237Z,16.43
2022-12-20T13:30:28.865Z,17.33
2022-12-20T13:33:26.171Z,17.21
2022-12-20T13:36:06.343Z,16.44
2022-12-20T13:39:05.932Z,15.56
2022-12-20T13:41:45.243Z,15.18
2022-12-20T13:44:36.505Z,15.98
2022-12-20T13:47:14.078Z,16.20
2022-12-20T13:49:42.895Z,16.44
2022-12-20T13:52:29.188Z,16.57
2022-12-20T13:55:00.676Z,16.81
2022-12-20T13:57:31.806Z,16.70
2022-12-20T14:00:07.342Z,15.34
2022-12-20T14:02:37.770Z,17.26
2022-12-20T14:05:10.253Z,15.84
2022-12-20T14:07:38.914Z,16.37
2022-12-20T14:10:18.451Z,15.36
2022-12-20T14:12:47.164Z,16.33
2022-12-20T14:15:28.214Z,15.64
2022-12-20T14:17:56.277Z,15.80
2022-12-20T14:20:27.157Z,16.22
2022-12-20T14:23:04.276Z,16.92
2022-12-20T14:25:39.296Z,16.34
2022-12-20T14:28:21.450Z,15.44
2022-12-20T14:30:55.171Z,16.27
2022-12-20T14:33:29.960Z,15.87
2022-12-20T14:35:59.829Z,15.88
2022-12-20T14:38:31.615Z,16.07
2022-12-20T14:40:59.512Z,16.21
2022-12-20T14:43:29.676Z,15.37
2022-12-20T14:46:19.609Z,15.90
2022-12-20T14:48:47.761Z,15.69
2022-12-20T14:51:21.725Z,15.87
2022-12-20T14:53:51.458Z,15.02
2022-12-20T14:56:26.415Z,15.48
2022-12-20T14:59:14.860Z,16.81
2022-12-20T15:01:44.984Z,15.99
2022-12-20T15:04:27.361Z,16.30
2022-12-20T15:06:55.376Z,15.84
2022-12-20T15:09:23.231Z,15.66
2022-12-20T15:11:52.290Z,16.47
2022-12-20T15:14:27.276Z,15.22
2022-12-20T15:16:56.539Z,16.49
2022-12-20T15:19:24.334Z,15.52
2022-12-20T15:21:53.192Z,16.18
2022-12-20T15:24:26.900Z,15.01
2022-12-20T15:26:54.890Z,15.62
2022-12-20T15:29:25.377Z,15.05
2022-12-20T15:31:58.653Z,14.06
2022-12-20T15:34:30.959Z,15.83
2022-12-20T15:37:00.151Z,15.11
2022-12-20T15:39:28.469Z,14.86
2022-12-20T15:41:57.217Z,14.65
2022-12-20T15:44:27.432Z,14.75
2022-12-20T15:46:57.125Z,16.35
2022-12-20T15:49:26.828Z,15.41
2022-12-20T15:51:55.404Z,15.46
2022-12-20T15:54:27.225Z,15.42
2022-12-20T15:56:55.524Z,15.61
2022-12-20T16:02:19.960Z,15.53
2022-12-20T16:04:47.980Z,15.61
2022-12-20T16:07:16.356Z,15.78
2022-12-20T16:09:44.290Z,15.87
2022-12-20T16:12:15.955Z,16.46
2022-12-20T16:14:43.947Z,15.94
2022-12-20T16:17:15.228Z,16.14
2022-12-20T16:19:43.339Z,16.44
2022-12-20T16:22:16.067Z,16.28
2022-12-20T16:24:43.975Z,16.63
2022-12-20T16:27:11.972Z,16.89
2022-12-20T16:29:41.322Z,17.01
2022-12-20T16:32:16.078Z,16.48
2022-12-20T16:34:44.256Z,16.17
2022-12-20T16:37:12.784Z,16.87
2022-12-20T16:39:40.673Z,16.83
2022-12-20T16:42:14.721Z,16.48
2022-12-20T16:44:44.758Z,16.20
2022-12-20T16:47:13.288Z,16.06
2022-12-20T16:49:51.217Z,16.50
2022-12-20T16:52:20.520Z,16.23
2022-12-20T16:54:48.704Z,15.80
2022-12-20T16:57:16.591Z,15.96
2022-12-20T16:59:44.560Z,16.46
2022-12-20T17:02:23.178Z,15.91
2022-12-20T17:04:53.596Z,16.00
2022-12-20T17:07:21.503Z,15.98
2022-12-20T17:12:35.103Z,16.17
2022-12-20T17:15:04.744Z,15.64
2022-12-20T17:17:32.643Z,16.29
2022-12-20T17:20:01.972Z,15.43
2022-12-20T17:25:25.030Z,16.44
2022-12-20T17:27:53.468Z,16.18
2022-12-20T17:30:21.669Z,15.80
2022-12-20T17:32:49.986Z,16.21
2022-12-20T17:35:25.413Z,15.05
2022-12-20T17:37:55.732Z,15.99
2022-12-20T17:40:25.158Z,16.08
2022-12-20T17:42:53.161Z,15.95
2022-12-20T17:45:30.593Z,15.41
2022-12-20T17:47:58.749Z,16.07
2022-12-20T17:50:28.238Z,15.46
2022-12-20T17:52:56.172Z,15.39
2022-12-20T17:55:27.110Z,14.60
2022-12-20T17:57:55.800Z,15.64
2022-12-20T18:00:26.857Z,15.56
2022-12-20T18:02:55.111Z,15.46
2022-12-20T18:05:24.378Z,16.22
2022-12-20T18:07:55.091Z,14.22
2022-12-20T18:10:24.269Z,14.98
2022-12-20T18:12:52.440Z,15.63
2022-12-20T18:15:20.445Z,15.55
2022-12-20T18:17:48.512Z,15.49
2022-12-20T18:20:17.333Z,15.12
2022-12-20T18:22:45.232Z,14.28
2022-12-20T18:25:18.220Z,15.22
2022-12-20T18:27:46.242Z,15.77
2022-12-20T18:30:14.631Z,13.84
2022-12-20T18:32:42.584Z,15.17
2022-12-20T18:35:11.177Z,14.25
2022-12-20T18:37:39.236Z,14.76
2022-12-20T18:40:08.959Z,14.34
2022-12-20T18:42:38.245Z,13.85
2022-12-20T18:45:07.129Z,13.44
2022-12-20T18:47:35.570Z,13.92
2022-12-20T18:50:03.399Z,13.32
2022-12-20T18:52:31.276Z,13.80
2022-12-20T18:54:59.233Z,13.24
2022-12-20T18:57:27.370Z,13.28
2022-12-20T18:59:56.606Z,14.22
2022-12-20T19:02:25.649Z,14.64
2022-12-20T19:04:53.664Z,13.71
2022-12-20T19:07:21.554Z,15.59
2022-12-20T19:09:49.420Z,13.69
2022-12-20T19:12:17.569Z,13.09
2022-12-20T19:14:45.694Z,13.52
2022-12-20T19:17:15.074Z,13.62
2022-12-20T19:19:42.973Z,13.76
2022-12-20T19:22:10.884Z,13.89
2022-12-20T19:24:38.874Z,13.43
2022-12-20T19:27:09.275Z,15.03
2022-12-20T19:29:37.207Z,14.12
2022-12-20T19:32:05.548Z,14.43
2022-12-20T19:34:34.721Z,13.52
2022-12-20T19:37:02.652Z,13.60
2022-12-20T19:39:30.499Z,14.34
2022-12-20T19:42:23.096Z,13.24
2022-12-20T19:44:47.415Z,13.74
2022-12-20T19:47:15.419Z,13.59
2022-12-20T19:49:44.646Z,13.79
2022-12-20T19:52:28.632Z,13.43
2022-12-20T19:54:56.957Z,12.35
2022-12-20T19:57:24.761Z,12.94
2022-12-20T19:59:55.927Z,13.36
2022-12-20T20:02:24.570Z,14.15
2022-12-20T20:04:54.077Z,13.84
2022-12-20T20:07:22.167Z,14.27
2022-12-20T20:09:50.046Z,14.69
2022-12-20T20:12:18.034Z,14.60
2022-12-20T20:14:45.820Z,14.43
2022-12-20T20:17:13.739Z,14.00
2022-12-20T20:19:42.541Z,14.02
2022-12-20T20:22:11.918Z,14.01
2022-12-20T20:24:39.815Z,12.83
2022-12-20T20:27:07.675Z,13.81
2022-12-20T20:29:35.760Z,12.27
2022-12-20T20:32:04.358Z,13.58
2022-12-20T20:34:32.262Z,14.30
2022-12-20T20:37:00.932Z,13.65
2022-12-20T20:39:30.176Z,13.87
2022-12-20T20:41:58.442Z,14.41
2022-12-20T20:44:26.327Z,13.67
2022-12-20T20:46:54.324Z,12.26
2022-12-20T20:49:22.496Z,13.01
2022-12-20T20:51:50.365Z,14.19
2022-12-20T20:54:18.371Z,13.79
2022-12-20T20:56:47.708Z,13.55
2022-12-20T20:59:18.000Z,13.15
2022-12-20T21:01:46.303Z,13.15
2022-12-20T21:04:14.464Z,13.00
2022-12-20T21:06:42.528Z,12.93
2022-12-20T21:09:11.344Z,12.14
2022-12-20T21:11:39.468Z,12.42
2022-12-20T21:14:08.881Z,13.19
2022-12-20T21:16:36.980Z,13.20
2022-12-20T21:19:05.508Z,12.50
2022-12-20T21:21:33.812Z,13.35
2022-12-20T21:24:02.152Z,13.24
2022-12-20T21:26:30.122Z,11.64
2022-12-20T21:28:58.706Z,11.93
2022-12-20T21:31:28.259Z,12.21
2022-12-20T21:33:56.555Z,13.23
2022-12-20T21:36:24.748Z,12.93
2022-12-20T21:38:54.137Z,13.07
2022-12-20T21:41:23.986Z,13.42
2022-12-20T21:43:52.134Z,13.29
2022-12-20T21:46:20.004Z,13.15
2022-12-20T21:48:49.208Z,13.20
2022-12-20T21:51:19.326Z,12.77
2022-12-20T21:53:49.400Z,13.23
2022-12-20T21:56:18.395Z,12.86
2022-12-20T21:58:46.924Z,12.43
2022-12-20T22:01:15.942Z,12.35
2022-12-20T22:03:44.679Z,12.39
2022-12-20T22:06:13.961Z,12.97
2022-12-20T22:08:41.846Z,12.55
2022-12-20T22:11:10.978Z,11.76
2022-12-20T22:13:41.894Z,12.93
2022-12-20T22:16:12.146Z,12.09
2022-12-20T22:18:40.793Z,12.10
2022-12-20T22:21:10.343Z,12.38
2022-12-20T22:23:39.859Z,13.66
2022-12-20T22:26:09.587Z,13.40
2022-12-20T22:28:38.295Z,12.48
2022-12-20T22:31:09.594Z,12.87
2022-12-20T22:33:37.812Z,12.80
2022-12-20T22:36:06.501Z,12.63
2022-12-20T22:38:34.743Z,13.03
2022-12-20T22:41:09.700Z,13.54
2022-12-20T22:43:37.851Z,13.23
2022-12-20T22:46:06.442Z,13.69
2022-12-20T22:48:34.567Z,13.02
2022-12-20T22:51:04.264Z,13.72
2022-12-20T22:53:33.355Z,13.96
2022-12-20T22:56:01.408Z,13.70
2022-12-20T22:58:33.505Z,12.52
2022-12-20T23:01:02.767Z,13.28
2022-12-20T23:03:31.532Z,13.91
2022-12-20T23:06:01.259Z,13.85
2022-12-20T23:08:30.714Z,13.52
2022-12-20T23:11:16.206Z,13.48
2022-12-20T23:14:03.007Z,13.97
2022-12-20T23:16:30.882Z,13.24
2022-12-20T23:19:00.128Z,12.09
2022-12-20T23:21:46.227Z,13.13
2022-12-20T23:24:14.690Z,13.60
2022-12-20T23:26:43.122Z,13.11
2022-12-20T23:29:14.185Z,14.13
2022-12-20T23:31:42.323Z,13.47
2022-12-20T23:34:10.152Z,13.29
2022-12-20T23:36:38.317Z,13.49
2022-12-20T23:39:07.143Z,13.54
2022-12-20T23:41:35.141Z,13.24
2022-12-20T23:44:04.981Z,13.42
2022-12-20T23:46:34.622Z,14.24
2022-12-20T23:49:02.497Z,13.53
2022-12-20T23:51:30.333Z,13.10
2022-12-20T23:53:58.209Z,12.72
2022-12-20T23:56:25.995Z,12.81
2022-12-20T23:58:55.048Z,13.70
